Surface/Precipitation History
12/19/2014 07:23  to  12/20/2014 07:23
Change End Date:
Date/Time
(MST)
Sf
Temp Chem Water Layer Surface Precipitation
Sf Sub Frz Factor Pct Depth IcePct Cond Salin Type Intens Accum Rate
12/20/2014 07:11 Ice Watch 25.3F 27F - 95 - - - 20 mhos 3082 None None - -
12/20/2014 07:01 Ice Watch 25.3F 27F - 95 - - - 19 mhos 3015 None None - -
12/20/2014 06:51 Ice Watch 25.3F 27F - 95 - - - 19 mhos 3007 None None - -
12/20/2014 06:48 Ice Watch 25.3F 27F - 95 - - - 19 mhos 3007 None None - -
12/20/2014 06:41 Ice Watch 25.2F 27F - 95 - - - 19 mhos 3034 None None - -
12/20/2014 06:31 Ice Watch 25.2F 27F - 95 - - - 19 mhos 3026 None None - -
12/20/2014 06:21 Ice Watch 25.2F 27F - 95 - - - 19 mhos 3012 None None - -
12/20/2014 06:11 Ice Watch 25.2F 27F - 95 - - - 19 mhos 2975 None None - -
12/20/2014 06:11 Ice Watch 25.2F 27F - 95 - - - 19 mhos 2975 None None - -
12/20/2014 06:01 Ice Watch 25.0F 27F - 95 - - - 18 mhos 2952 None None - -
12/20/2014 05:51 Ice Watch 24.8F 27F - 95 - - - 18 mhos 2937 None None - -
12/20/2014 05:41 Ice Watch 24.6F 27F - 95 - - - 18 mhos 2930 None None - -
12/20/2014 05:41 Ice Watch 24.6F 27F - 95 - - - 18 mhos 2930 None None - -
12/20/2014 05:31 Ice Watch 24.6F 27F - 95 - - - 17 mhos 2896 None None - -
12/20/2014 05:20 Ice Watch 24.4F 27F - 95 - - - 17 mhos 2884 None None - -
Date/Time
(MST)
Sf
Temp Chem Water Layer Surface Precipitation
Sf Sub Frz Factor Pct Depth IcePct Cond Salin Type Intens Accum Rate
12/20/2014 05:11 Ice Watch 24.4F 27F - 95 - - - 17 mhos 2865 None None - -
12/20/2014 05:10 Ice Watch 24.4F 27F - 95 - - - 17 mhos 2865 None None - -
12/20/2014 05:00 Ice Watch 24.4F 27F - 95 - - - 17 mhos 2897 None None - -
12/20/2014 04:50 Ice Watch 24.4F 27F - 95 - - - 17 mhos 2950 None None - -
12/20/2014 04:41 Ice Watch 24.8F 27F - 95 - - - 18 mhos 2951 None None - -
12/20/2014 04:40 Ice Watch 24.8F 27F - 95 - - - 18 mhos 2972 None None - -
12/20/2014 04:30 Ice Watch 25.2F 28F - 95 - - - 18 mhos 2947 None None - -
12/20/2014 04:20 Ice Watch 25.2F 28F - 95 - - - 18 mhos 2925 None None - -
12/20/2014 04:11 Ice Watch 25.2F 28F - 95 - - - 18 mhos 2871 None None - -
12/20/2014 04:10 Ice Watch 25.2F 28F - 95 - - - 18 mhos 2865 None None - -
12/20/2014 04:00 Ice Watch 25.2F 28F - 95 - - - 18 mhos 2851 None None - -
12/20/2014 03:50 Ice Watch 25.2F 28F - 95 - - - 18 mhos 2871 None None - -
12/20/2014 03:41 Ice Watch 25.2F 28F - 95 - - - 18 mhos 2961 None None - -
12/20/2014 03:40 Ice Watch 25.2F 28F - 95 - - - 19 mhos 2982 None None - -
12/20/2014 03:30 Ice Watch 25.3F 28F - 95 - - - 20 mhos 3143 None None - -
Date/Time
(MST)
Sf
Temp Chem Water Layer Surface Precipitation
Sf Sub Frz Factor Pct Depth IcePct Cond Salin Type Intens Accum Rate
12/20/2014 03:20 Ice Watch 25.9F 28F - 95 - - - 22 mhos 3298 None None - -
12/20/2014 03:11 Ice Watch 26.2F 29F - 95 - - - 23 mhos 3350 None None - -
12/20/2014 03:10 Ice Watch 26.2F 29F - 95 - - - 24 mhos 3389 None None - -
12/20/2014 03:00 Ice Watch 26.6F 29F - 95 - - - 24 mhos 3359 None None - -
12/20/2014 02:50 Ice Watch 27.3F 29F - 95 - - - 25 mhos 3295 None None - -
12/20/2014 02:40 Ice Watch 27.3F 29F - 95 - - - 25 mhos 3326 None None - -
12/20/2014 02:30 Ice Watch 27.3F 29F - 95 - - - 26 mhos 3369 None None - -
12/20/2014 02:20 Ice Watch 27.3F 29F - 95 - - - 26 mhos 3380 None None - -
12/20/2014 02:10 Ice Watch 27.0F 29F - 95 - - - 26 mhos 3444 None None - -
12/20/2014 02:00 Ice Watch 26.6F 29F - 95 - - - 25 mhos 3454 None None - -
12/20/2014 01:50 Ice Watch 26.4F 29F - 95 - - - 25 mhos 3508 None None - -
12/20/2014 01:41 Ice Watch 26.4F 29F - 95 - - - 25 mhos 3530 None None - -
12/20/2014 01:40 Ice Watch 26.4F 29F - 95 - - - 25 mhos 3503 None None - -
12/20/2014 01:30 Ice Watch 26.8F 29F - 95 - - - 26 mhos 3471 None None - -
12/20/2014 01:19 Ice Watch 27.1F 29F - 95 - - - 26 mhos 3406 None None - -
Date/Time
(MST)
Sf
Temp Chem Water Layer Surface Precipitation
Sf Sub Frz Factor Pct Depth IcePct Cond Salin Type Intens Accum Rate
12/20/2014 01:11 Ice Watch 27.1F 29F - 95 - - - 26 mhos 3429 None None - -
12/20/2014 01:09 Ice Watch 27.0F 29F - 95 - - - 26 mhos 3455 None None - -
12/20/2014 00:59 Ice Watch 26.8F 29F - 95 - - - 25 mhos 3448 None None - -
12/20/2014 00:49 Ice Watch 26.8F 29F - 95 - - - 25 mhos 3449 None None - -
12/20/2014 00:41 Ice Watch 27.0F 29F - 95 - - - 26 mhos 3433 None None - -
12/20/2014 00:39 Ice Watch 27.1F 29F - 95 - - - 26 mhos 3395 None None - -
12/20/2014 00:29 Ice Watch 27.3F 29F - 95 - - - 26 mhos 3391 None None - -
12/20/2014 00:20 Ice Watch 27.3F 29F - 95 - - - 27 mhos 3493 None None - -
12/20/2014 00:19 Ice Watch 27.3F 29F - 95 - - - 27 mhos 3482 None None - -
12/20/2014 00:09 Ice Watch 27.3F 29F - 95 - - - 26 mhos 3459 None None - -
12/20/2014 00:07 Ice Watch 27.3F 29F - 95 - - - 26 mhos 3459 None None - -
12/19/2014 23:59 Ice Watch 27.3F 30F - 95 - - - 26 mhos 3425 None None - -
12/19/2014 23:49 Ice Watch 27.5F 30F - 95 - - - 26 mhos 3377 None None - -
12/19/2014 23:41 Ice Watch 27.5F 30F - 95 - - - 26 mhos 3354 None None - -
12/19/2014 23:39 Ice Watch 27.5F 30F - 95 - - - 26 mhos 3355 None None - -
Date/Time
(MST)
Sf
Temp Chem Water Layer Surface Precipitation
Sf Sub Frz Factor Pct Depth IcePct Cond Salin Type Intens Accum Rate
12/19/2014 23:29 Ice Watch 27.7F 30F - 95 - - - 26 mhos 3248 None None - -
12/19/2014 23:19 Ice Watch 27.9F 30F - 95 - - - 25 mhos 3171 None None - -
12/19/2014 23:11 Ice Watch 28.2F 30F - 95 - - - 25 mhos 3080 None None - -
12/19/2014 23:09 Ice Watch 28.2F 30F - 95 - - - 25 mhos 3060 None None - -
12/19/2014 22:59 Ice Watch 28.4F 30F - 95 - - - 24 mhos 2951 None None - -
12/19/2014 22:49 Ice Watch 28.6F 30F - 95 - - - 23 mhos 2760 None None - -
12/19/2014 22:39 Ice Watch 28.8F 30F - 95 - - - 21 mhos 2523 None None - -
12/19/2014 22:29 Ice Watch 28.9F 30F - 95 - - - 20 mhos 2354 None None - -
12/19/2014 22:19 Ice Watch 28.8F 30F - 95 - - - 26 mhos 3051 None None - -
12/19/2014 22:09 Ice Watch 28.8F 30F - 95 - - - 23 mhos 2811 None None - -
12/19/2014 21:59 Ice Watch 28.4F 30F - 95 - - - 26 mhos 3167 None None - -
12/19/2014 21:49 Ice Watch 28.6F 31F - 95 - - - 25 mhos 3030 None None - -
12/19/2014 21:39 Ice Watch 28.8F 31F - 95 - - - 24 mhos 2891 None None - -
12/19/2014 21:29 Ice Watch 28.8F 31F - 95 - - - 24 mhos 2886 None None - -
12/19/2014 21:19 Ice Watch 28.8F 31F - 95 - - - 23 mhos 2689 None None - -
Date/Time
(MST)
Sf
Temp Chem Water Layer Surface Precipitation
Sf Sub Frz Factor Pct Depth IcePct Cond Salin Type Intens Accum Rate
12/19/2014 21:08 Ice Watch 29.1F 31F - 95 - - - 20 mhos 2408 None None - -
12/19/2014 20:58 Ice Watch 29.1F 31F - 95 - - - 23 mhos 2639 None None - -
12/19/2014 20:48 Ice Watch 29.1F 31F - 95 - - - 23 mhos 2664 None None - -
12/19/2014 20:38 Ice Watch 29.7F 31F - 95 - - - 20 mhos 2311 None None - -
12/19/2014 20:28 Ice Watch 29.7F 31F - 95 - - - 21 mhos 2417 None None - -
12/19/2014 20:18 Ice Watch 29.7F 31F - 95 - - - 20 mhos 2286 None None - -
12/19/2014 20:08 Ice Watch 29.8F 31F - 95 - - - 22 mhos 2457 None None - -
12/19/2014 19:58 Ice Watch 29.7F 31F - 95 - - - 22 mhos 2472 None None - -
12/19/2014 19:48 Ice Watch 29.8F 31F - 95 - - - 22 mhos 2432 None None - -
12/19/2014 19:38 Ice Watch 30.0F 31F - 95 - - - 21 mhos 2309 None None - -
12/19/2014 19:28 Ice Watch 30.4F 31F - 95 - - - 17 mhos 1855 None None - -
12/19/2014 19:18 Ice Watch 30.6F 31F - 95 - - - 16 mhos 1681 None None - -
12/19/2014 19:08 Ice Watch 30.7F 31F - 95 - - - 15 mhos 1611 None None - -
12/19/2014 18:58 Ice Watch 30.7F 31F - 95 - - - 13 mhos 1369 None None - -
12/19/2014 18:48 Ice Watch 30.7F 31F - 95 - - - 15 mhos 1602 None None - -
Date/Time
(MST)
Sf
Temp Chem Water Layer Surface Precipitation
Sf Sub Frz Factor Pct Depth IcePct Cond Salin Type Intens Accum Rate
12/19/2014 18:42 Ice Watch 30.7F 31F - 95 - - - 14 mhos 1471 None None - -
12/19/2014 18:38 Ice Watch 30.6F 31F - 95 - - - 12 mhos 1275 None None - -
12/19/2014 18:28 Ice Watch 30.4F 32F - 95 - - - 13 mhos 1456 None None - -
12/19/2014 18:18 Ice Watch 30.7F 32F - 95 - - - 1 mhos 60 None None - -
12/19/2014 18:11 Ice Watch 30.2F 32F - 95 - - - 1 mhos 65 None None - -
12/19/2014 18:08 Ice Watch 30.4F 32F - 95 - - - 0 mhos 57 None None - -
12/19/2014 17:58 Ice Watch 31.5F 32F - 15 - - - 0 mhos 44 None None - -
12/19/2014 17:48 Ice Watch 31.6F 32F - 35 - - - 0 mhos 42 None None - -
12/19/2014 17:41 Ice Watch 32.0F 32F - 60 - - - 0 mhos 38 None None - -
12/19/2014 17:38 Ice Watch 32.0F 33F - 55 - - - 0 mhos 37 None None - -
12/19/2014 17:28 Trace Moisture 32.2F 33F - 45 - - - 0 mhos 31 None None - -
12/19/2014 17:18 Trace Moisture 32.7F 33F - 25 - - - 0 mhos 27 None None - -
12/19/2014 17:08 Trace Moisture 33.1F 33F - 25 - - - 0 mhos 20 None None - -
12/19/2014 17:07 Trace Moisture 32.9F 33F - 10 - - - 0 mhos 19 None None - -
12/19/2014 16:58 Trace Moisture 33.4F 33F - 10 - - - 0 mhos 8 None None - -
Date/Time
(MST)
Sf
Temp Chem Water Layer Surface Precipitation
Sf Sub Frz Factor Pct Depth IcePct Cond Salin Type Intens Accum Rate
12/19/2014 16:47 Trace Moisture 33.8F 33F - 5 - - - 0 mhos 2 None None - -
12/19/2014 16:40 Trace Moisture 34.3F 34F - 5 - - - 0 mhos 1 None None - -
12/19/2014 16:37 Trace Moisture 34.5F 34F - 5 - - - 0 mhos 1 None None - -
12/19/2014 16:27 Trace Moisture 34.7F 34F - 5 - - - 0 mhos 1 None None - -
12/19/2014 16:17 Trace Moisture 35.1F 34F - 5 - - - 0 mhos 0 None None - -
12/19/2014 16:10 Trace Moisture 35.2F 34F - 5 - - - 0 mhos 1 None None - -
12/19/2014 16:07 Trace Moisture 35.2F 34F - 5 - - - 0 mhos 0 None None - -
12/19/2014 15:57 Trace Moisture 35.6F 34F - 5 - - - 0 mhos 0 None None - -
12/19/2014 15:47 Trace Moisture 35.8F 34F - 5 - - - 0 mhos 0 None None - -
12/19/2014 15:40 Trace Moisture 35.8F 35F - 5 - - - 0 mhos 0 None None - -
12/19/2014 15:37 Trace Moisture 35.8F 35F - 5 - - - 0 mhos 0 None None - -
12/19/2014 15:27 Trace Moisture 36.0F 35F - 5 - - - 0 mhos 0 None None - -
12/19/2014 15:17 Trace Moisture 36.3F 35F - 5 - - - 0 mhos 0 None None - -
12/19/2014 15:11 Trace Moisture 36.5F 35F - 5 - - - 0 mhos 0 None None - -
12/19/2014 15:07 Trace Moisture 36.7F 35F - 5 - - - 0 mhos 0 None None - -
Date/Time
(MST)
Sf
Temp Chem Water Layer Surface Precipitation
Sf Sub Frz Factor Pct Depth IcePct Cond Salin Type Intens Accum Rate
12/19/2014 14:57 Trace Moisture 37.0F 35F - 5 - - - 0 mhos 0 None None - -
12/19/2014 14:47 Trace Moisture 37.0F 35F - 5 - - - 0 mhos 0 None None - -
12/19/2014 14:42 Trace Moisture 37.0F 35F - 5 - - - 0 mhos 0 None None - -
12/19/2014 14:37 Trace Moisture 37.4F 35F - 5 - - - 0 mhos 0 None None - -
12/19/2014 14:27 Trace Moisture 36.7F 36F - 5 - - - 0 mhos 0 None None - -
12/19/2014 14:17 Trace Moisture 36.7F 36F - 5 - - - 0 mhos 0 None None - -
12/19/2014 14:11 Trace Moisture 37.0F 36F - 5 - - - 0 mhos 0 None None - -
12/19/2014 14:07 Trace Moisture 37.4F 37F - 5 - - - 0 mhos 0 None None - -
12/19/2014 13:57 Trace Moisture 38.7F 37F - 30 - - - 0 mhos 0 None None - -
12/19/2014 13:47 Trace Moisture 40.6F 37F - 5 - - - 0 mhos 0 None None - -
12/19/2014 13:41 Trace Moisture 41.4F 37F - 5 - - - 0 mhos 0 None None - -
12/19/2014 13:37 Trace Moisture 41.9F 37F - 5 - - - 0 mhos 0 None None - -
12/19/2014 13:27 Trace Moisture 42.4F 37F - 5 - - - 0 mhos 0 None None - -
12/19/2014 13:17 Trace Moisture 42.4F 37F - 5 - - - 0 mhos 0 None None - -
12/19/2014 13:11 Trace Moisture 42.1F 37F - 5 - - - 0 mhos 0 None None - -
Date/Time
(MST)
Sf
Temp Chem Water Layer Surface Precipitation
Sf Sub Frz Factor Pct Depth IcePct Cond Salin Type Intens Accum Rate
12/19/2014 13:07 Trace Moisture 42.8F 37F - 5 - - - 0 mhos 0 None None - -
12/19/2014 12:57 Dry 43.5F 37F - - - - - 0 mhos 0 None None - -
12/19/2014 12:47 Trace Moisture 44.1F 36F - 5 - - - 0 mhos 0 None None - -
12/19/2014 12:41 Trace Moisture 43.3F 36F - 5 - - - 0 mhos 0 None None - -
12/19/2014 12:37 Dry 43.9F 35F - - - - - 0 mhos 0 None None - -
12/19/2014 12:27 Dry 43.2F 34F - - - - - 0 mhos 0 None None - -
12/19/2014 12:17 Dry 41.5F 33F - - - - - 0 mhos 0 None None - -
12/19/2014 12:10 Trace Moisture 39.0F 33F - 5 - - - 0 mhos 1 None None - -
12/19/2014 12:07 Trace Moisture 36.9F 33F - 5 - - - 0 mhos 1 None None - -
12/19/2014 11:57 Trace Moisture 35.8F 32F - 5 - - - 0 mhos 2 None None - -
12/19/2014 11:46 Trace Moisture 35.6F 32F - 5 - - - 0 mhos 2 None None - -
12/19/2014 11:40 Trace Moisture 35.8F 32F - 5 - - - 0 mhos 2 None None - -
12/19/2014 11:36 Trace Moisture 36.9F 32F - 5 - - - 0 mhos 2 None None - -
12/19/2014 11:26 Trace Moisture 36.5F 32F - 5 - - - 0 mhos 3 None None - -
12/19/2014 11:16 Trace Moisture 36.9F 31F - 5 - - - 0 mhos 7 None None - -
Date/Time
(MST)
Sf
Temp Chem Water Layer Surface Precipitation
Sf Sub Frz Factor Pct Depth IcePct Cond Salin Type Intens Accum Rate
12/19/2014 11:10 Trace Moisture 37.6F 31F - 5 - - - 0 mhos 8 None None - -
12/19/2014 11:06 Trace Moisture 37.4F 31F - 5 - - - 0 mhos 11 None None - -
12/19/2014 10:56 Trace Moisture 36.9F 31F - 5 - - - 0 mhos 21 None None - -
12/19/2014 10:46 Trace Moisture 35.4F 31F - 5 - - - 0 mhos 40 None None - -
12/19/2014 10:41 Trace Moisture 34.9F 30F - 15 - - - 1 mhos 57 None None - -
12/19/2014 10:36 Trace Moisture 34.3F 30F - 20 - - - 1 mhos 55 None None - -
12/19/2014 10:26 Trace Moisture 33.4F 30F - 25 - - - 1 mhos 52 None None - -
12/19/2014 10:16 Trace Moisture 32.7F 30F - 15 - - - 0 mhos 42 None None - -
12/19/2014 10:11 Trace Moisture 32.4F 30F - 20 - - - 0 mhos 43 None None - -
12/19/2014 10:06 Ice Watch 32.0F 30F - 20 - - - 0 mhos 39 None None - -
12/19/2014 09:56 Ice Watch 31.6F 30F - 10 - - - 0 mhos 35 None None - -
12/19/2014 09:46 Ice Watch 31.1F 29F - 15 - - - 0 mhos 35 None None - -
12/19/2014 09:41 Ice Watch 31.1F 29F - 10 - - - 0 mhos 33 None None - -
12/19/2014 09:36 Ice Watch 30.9F 29F - 10 - - - 0 mhos 32 None None - -
12/19/2014 09:26 Ice Watch 30.6F 29F - 10 - - - 0 mhos 31 None None - -
Date/Time
(MST)
Sf
Temp Chem Water Layer Surface Precipitation
Sf Sub Frz Factor Pct Depth IcePct Cond Salin Type Intens Accum Rate
12/19/2014 09:16 Ice Watch 30.7F 29F - 10 - - - 0 mhos 25 None None - -
12/19/2014 09:09 Ice Watch 30.4F 29F - 10 - - - 0 mhos 27 None None - -
12/19/2014 09:06 Ice Watch 30.4F 29F - 10 - - - 0 mhos 28 None None - -
12/19/2014 08:56 Ice Watch 29.7F 29F - 10 - - - 0 mhos 32 None None - -
12/19/2014 08:46 Ice Watch 29.1F 29F - 10 - - - 0 mhos 34 None None - -
12/19/2014 08:41 Ice Watch 28.8F 29F - 10 - - - 0 mhos 35 None None - -
12/19/2014 08:36 Ice Watch 28.8F 29F - 10 - - - 0 mhos 35 None None - -
12/19/2014 08:26 Ice Watch 28.4F 28F - 10 - - - 0 mhos 36 None None - -
12/19/2014 08:16 Ice Watch 28.2F 28F - 10 - - - 0 mhos 36 None None - -
12/19/2014 08:09 Ice Watch 28.2F 28F - 15 - - - 0 mhos 34 None None - -
12/19/2014 08:06 Ice Watch 28.0F 28F - 10 - - - 0 mhos 35 None None - -
12/19/2014 07:56 Ice Watch 28.0F 28F - 10 - - - 0 mhos 34 None None - -
12/19/2014 07:46 Ice Watch 28.0F 28F - 10 - - - 0 mhos 33 None None - -
12/19/2014 07:41 Ice Watch 28.0F 28F - 10 - - - 0 mhos 33 None None - -
12/19/2014 07:36 Ice Watch 28.0F 28F - 10 - - - 0 mhos 32 None None - -
Date/Time
(MST)
Sf
Temp Chem Water Layer Surface Precipitation
Sf Sub Frz Factor Pct Depth IcePct Cond Salin Type Intens Accum Rate
12/19/2014 07:26 Ice Watch 28.0F 28F - 10 - - - 0 mhos 31 None None - -
Change End Date:
Copyright © 1998-2005 Surface Systems, Inc.
All Rights Reserved
Send comments about the data to:
SCAN Web ® is a registered trademark of Surface Systems, Inc.
SCAN Web Version 5.6